• Join FlightAware (Why Join?)
  • Login
  • US Flag 
03:03PM EDT


 

Airport Tracker/Info


-or-


 

Live Flight TrackerFlight Track Log ✈ N828AF ✈ 23-Apr-2013 ✈ KGRR - KMQJ

Flight Track Log - Related Links

Times and Time Zones

All times are in EDT time to prevent confusion due to time zone crossing. See the N828AF flight status page for this flight to view local times or setup timezone preferences in your user account.

Time Position Orientation Groundspeed Altitude Reporting Facility
EDT Latitude Longitude Course Direction KTS MPH feet Rate Location/Type
04:54PM 42.8603 -85.5708 192° South 196 226 3,300  Level Chicago Center
04:56PM 42.7672 -85.5886 188° South 163 188 9,300 2,640 Climbing Chicago Center
04:57PM 42.7172 -85.5964 187° South 175 201 11,600 2,040 Climbing Chicago Center
04:58PM 42.6642 -85.6064 188° South 187 215 13,600 2,040 Climbing Chicago Center
04:59PM 42.5013 -85.5715 192° South  Level Estimated
04:59PM 42.5917 -85.6203 188° South 213 245 15,900  Level Chicago Center
05:00PM 42.5325 -85.6319 188° South 216 249 17,800 1,500 Climbing Chicago Center
05:01PM 42.4731 -85.6442 189° South 217 250 19,000 720 Climbing Chicago Center
05:02PM 42.4000 -85.6581 188° South 258 297 19,400 1,020 Climbing Chicago Center
05:03PM 42.3272 -85.6711 188° South 264 304 21,200 1,200 Climbing Chicago Center
05:04PM 42.2572 -85.6853 189° South 256 295 22,000 360 Climbing Chicago Center
05:05PM 42.1769 -85.7000 188° South 286 329 22,000  Level Chicago Center
05:06PM 42.0731 -85.7186 188° South 312 359 22,000  Level Chicago Center
05:07PM 41.9942 -85.7331 188° South 320 368 22,000  Level Chicago Center
05:08PM 41.8869 -85.7536 188° South 326 375 22,000  Level Chicago Center
05:09PM 41.7983 -85.7697 188° South 325 374 22,000  Level Chicago Center
05:10PM 41.7089 -85.7842 187° South 328 377 22,000  Level Chicago Center
05:11PM 41.6169 -85.7758 176° South 334 384 22,000  Level Chicago Center
05:13PM 41.5061 -85.7647 176° South 337 388 22,000  Level Chicago Center
05:14PM 41.4164 -85.7822 188° South 326 375 22,000  Level Chicago Center
05:15PM 41.3272 -85.8036 190° South 328 377 22,000  Level Chicago Center
05:16PM 41.2364 -85.8236 189° South 331 381 22,000  Level Chicago Center
05:17PM 41.1453 -85.8433 189° South 333 383 22,000  Level Chicago Center
05:18PM 41.0344 -85.8686 190° South 337 388 22,000  Level Chicago Center
05:19PM 40.9419 -85.8906 190° South 339 390 22,000 -240 Level Chicago Center
05:20PM 40.8478 -85.9119 190° South 343 395 21,600 -840 Descending Chicago Center
05:21PM 40.7494 -85.9331 189° South 357 411 20,300 -1,620 Descending Chicago Center
05:22PM 40.6503 -85.9561 190° South 343 395 18,300 -2,280 Descending Chicago Center
05:23PM 40.5572 -85.9767 190° South 338 389 15,600 -2,400 Descending Chicago Center
05:24PM 40.4700 -85.9953 189° South 318 366 13,400 -2,160 Descending Chicago Center
05:25PM 40.3742 -86.0161 189° South 299 344 11,200 -1,680 Descending Chicago Center
05:26PM 40.3003 -86.0319 189° South 270 311 10,000 -1,020 Descending Chicago Center
05:27PM 40.2253 -86.0264 177° South 286 329 9,100 -1,200 Descending Chicago Center
05:28PM 40.1544 -86.0053 167° South 268 308 7,600 -1,740 Descending Chicago Center
05:29PM 40.1094 -85.9939 169° South 257 296 6,200 -2,100 Descending Indianapolis Center
05:30PM 40.0439 -85.9761 168° South 246 283 4,100 -1,500 Descending Indianapolis Center
05:31PM 39.9725 -85.9517 165° South 241 277 3,100 -1,020 Descending Indianapolis Center